Washington, DC (20088)

4:02 AM EST on January 31, 2015 (GMT -0500)
Bethesda | Change Station
CLOSE
Current Station
Personal Weather Station
Location: Bethesda, MD
Elevation: 236 ft
Nearby Weather Stations

Elev 236 ft 38.96 °N, 77.10 °W | Updated 6 seconds ago

Clear
Clear
18.5 °F
Feels Like 18 °F
N
0.0
Wind Variable Wind from North
Gusts 0.0 mph

Today
High -- | Low -- °F
--% Chance of Precip.
Yesterday
High -- | Low -- °F
Precip. -- in
7:15 AM 5:28 PM
Waxing Gibbous, 88% visible
Pressure 30.29 in
Visibility 10.0 miles
Clouds Clear
Windchill 18 °F
Dew Point 6 °F
Humidity 57%
Rainfall 0.00 in
Snow Depth Not available.
UV 0 out of 12
Pollen 1.70 out of 12
Air Quality Not available.
Flu Activity Not available.
METAR KCGS 310850Z AUTO 32005G14KT 10SM CLR M06/M14 A3029 RMK AO1

More Conditions Fewer Conditions

Pressure 30.29 in
Visibility 10.0 miles
Clouds Clear
Windchill 18 °F
Dew Point 6 °F
Humidity 57%
Rainfall 0.00 in
Snow Depth Not available.
UV 0 out of 12
Pollen 1.70 out of 12
Air Quality Not available.
Flu Activity Not available.
METAR KCGS 310850Z AUTO 32005G14KT 10SM CLR M06/M14 A3029 RMK AO1

More Conditions Fewer Conditions

10-Day Weather Forecast

Almanac

Astronomy

Jan. 31, 2015 Rise Set
Actual Time
Civil Twilight
Nautical Twilight
Astronomical Twilight
Moon
Length of Visible Light
Length of Day
Tomorrow will be .
, % of the Moon is Illuminated

Today's Extremes

State Highs State Lows

Community

WunderPhotos

Upload Photos

1,792,021 photos uploaded!

WunderBlogs® & News

Nearby

Air Quality

  Air Quality AQ Index Pollutant
Not available.

Snow Depth

Station Depth Elevation

Earthquake Activity

City Distance Mag. Time & Date
Minimum magnitude displayed is 2.5.

Coastal Water Temperatures

Place Temperature

Nearby Weather Stations